Weather at Huntingburg Airport

Public forecast

Using degrees Fahrenheit for public forecast. Weather courtesy of forecast.io.

Current aviation weather report (METAR) for Huntingburg Airport

Report is more than 2 hours old.

Retrieved 2021/03/01 16:56 UTC (2 hours ago):

KHNB 011656Z AUTO 31008KT 10SM CLR 06/M01 A3027 RMK AO2 SLP252 T00561011

Aviation forecast (TAF) for Huntingburg Airport

Retrieved 2021/03/01 18:24 UTC (35 minutes ago):

TAF KHNB 011721Z 0118/0218 31010G17KT P6SM SCT200 FM012200 02005KT P6SM FEW200